Time;durP1;ratioP1;P1;durP2;ratioP2;P2;SDS_P1;SDS_P2;PMS_P1;PMS_P2;Temp;Humidity;BMP_temperature;BMP_pressure;BME280_temperature;BME280_humidity;BME280_pressure;Samples;Min_cycle;Max_cycle;Signal;HPM_P1;HPM_P2
2023/07/27 00:02:03;;;;;;;5.40;2.80;;;;;;;12.47;95.87;100428.73;106511;1256;71197;-69
2023/07/27 00:04:30;;;;;;;4.40;2.80;;;;;;;12.44;95.82;100425.36;106357;1253;72769;-70
2023/07/27 00:06:57;;;;;;;6.60;3.40;;;;;;;12.42;95.92;100423.16;106424;1255;61698;-69
2023/07/27 00:09:24;;;;;;;6.00;3.20;;;;;;;12.40;96.20;100424.54;106247;1254;61250;-69
2023/07/27 00:11:51;;;;;;;4.20;2.80;;;;;;;12.38;96.60;100422.70;106249;1256;74719;-69
2023/07/27 00:14:18;;;;;;;5.20;3.00;;;;;;;12.36;96.50;100419.31;106442;1256;69923;-68
2023/07/27 00:16:45;;;;;;;4.20;3.20;;;;;;;12.36;96.34;100418.54;106615;1256;72640;-70
2023/07/27 00:19:11;;;;;;;6.50;3.30;;;;;;;12.34;96.18;100413.73;106314;1254;61710;-68
2023/07/27 00:21:38;;;;;;;5.70;3.20;;;;;;;12.33;96.27;100414.96;106305;1254;61270;-70
2023/07/27 00:24:05;;;;;;;5.90;3.50;;;;;;;12.33;96.14;100410.73;106357;1258;72947;-69
2023/07/27 00:26:32;;;;;;;6.20;3.70;;;;;;;12.33;96.37;100413.05;106297;1253;71159;-70
2023/07/27 00:28:59;;;;;;;6.80;3.50;;;;;;;12.32;96.02;100405.33;106468;1258;72015;-70
2023/07/27 00:31:26;;;;;;;4.40;3.40;;;;;;;12.31;95.87;100404.72;106300;1255;62136;-68
2023/07/27 00:33:53;;;;;;;5.90;3.50;;;;;;;12.31;95.70;100401.73;106378;1252;61281;-70
2023/07/27 00:36:20;;;;;;;5.30;3.70;;;;;;;12.29;95.85;100404.30;106305;1256;73765;-70
2023/07/27 00:38:47;;;;;;;5.50;3.80;;;;;;;12.28;95.63;100400.19;106594;1252;71109;-69
2023/07/27 00:41:13;;;;;;;6.40;3.80;;;;;;;12.24;95.75;100396.48;106259;1253;72443;-71
2023/07/27 00:43:41;;;;;;;7.60;4.10;;;;;;;12.22;95.67;100393.44;106130;1260;61992;-70
2023/07/27 00:46:08;;;;;;;6.90;3.90;;;;;;;12.19;95.60;100390.30;106155;1257;62487;-66
2023/07/27 00:48:34;;;;;;;5.30;3.80;;;;;;;12.15;95.56;100390.39;106440;1256;73888;-69
2023/07/27 00:51:02;;;;;;;6.30;3.90;;;;;;;12.12;95.82;100389.95;106488;1253;71139;-69
2023/07/27 00:53:29;;;;;;;6.70;3.70;;;;;;;12.08;96.00;100383.30;106345;1254;72778;-69
2023/07/27 00:55:56;;;;;;;8.00;4.20;;;;;;;12.06;95.98;100378.99;106221;1254;62434;-69
2023/07/27 00:58:24;;;;;;;5.80;4.10;;;;;;;12.03;96.15;100378.68;106249;1256;61115;-69
2023/07/27 01:00:51;;;;;;;6.40;4.20;;;;;;;11.99;96.16;100378.23;106472;1254;73999;-69
2023/07/27 01:03:18;;;;;;;7.50;4.50;;;;;;;11.96;96.14;100373.67;106559;1253;70295;-69
2023/07/27 01:05:46;;;;;;;6.60;4.10;;;;;;;11.93;96.26;100372.26;106283;1255;71696;-70
2023/07/27 01:08:12;;;;;;;7.60;4.30;;;;;;;11.89;96.40;100370.05;106216;1254;62041;-70
2023/07/27 01:11:05;;;;;;;7.30;4.70;;;;;;;11.86;96.61;100369.02;106414;1252;61267;-68
2023/07/27 01:13:43;;;;;;;6.70;4.20;;;;;;;11.83;96.69;100368.02;106271;1256;73483;-69
2023/07/27 01:16:14;;;;;;;7.10;4.80;;;;;;;11.80;96.94;100366.48;106668;1258;70391;-70
2023/07/27 01:19:15;;;;;;;7.00;4.50;;;;;;;11.78;96.97;100359.30;106321;1257;71150;-69
2023/07/27 01:21:51;;;;;;;7.30;4.50;;;;;;;11.78;97.22;100358.11;106378;1257;61468;-69
2023/07/27 01:24:42;;;;;;;8.10;5.10;;;;;;;11.78;97.32;100356.65;106258;1252;61347;-68
2023/07/27 01:27:43;;;;;;;7.10;4.80;;;;;;;11.80;97.68;100354.13;106401;1253;73525;-69
2023/07/27 01:30:28;;;;;;;6.90;5.20;;;;;;;11.81;97.75;100349.15;106273;1257;70866;-69
2023/07/27 01:33:04;;;;;;;7.00;5.30;;;;;;;11.82;98.08;100346.05;106377;1256;71504;-69
2023/07/27 01:35:47;;;;;;;6.70;5.00;;;;;;;11.83;97.94;100342.45;106216;1256;61355;-69
2023/07/27 01:38:15;;;;;;;8.30;5.80;;;;;;;11.83;98.07;100338.73;106561;1254;61229;-69
2023/07/27 01:40:44;;;;;;;7.20;5.50;;;;;;;11.82;98.26;100338.24;106430;1256;74485;-68
2023/07/27 01:43:13;;;;;;;8.70;5.50;;;;;;;11.83;98.58;100335.63;106226;1259;71410;-67
2023/07/27 01:45:41;;;;;;;7.00;5.60;;;;;;;11.84;98.65;100329.92;106413;1256;71517;-70
2023/07/27 01:48:09;;;;;;;9.20;5.60;;;;;;;11.84;98.80;100322.83;106378;1253;62119;-70
2023/07/27 01:50:37;;;;;;;8.20;5.20;;;;;;;11.86;98.99;100322.31;106534;1252;61057;-69
2023/07/27 01:53:05;;;;;;;8.90;5.50;;;;;;;11.87;98.93;100321.44;106166;1260;72944;-69
2023/07/27 01:55:33;;;;;;;6.80;5.60;;;;;;;11.88;99.02;100314.10;106222;1257;70995;-68
2023/07/27 01:58:01;;;;;;;9.30;5.90;;;;;;;11.89;99.18;100310.59;106352;1255;71584;-69
2023/07/27 02:00:28;;;;;;;8.30;5.20;;;;;;;11.90;99.19;100312.54;106408;1257;61520;-69
2023/07/27 02:02:56;;;;;;;9.70;5.70;;;;;;;11.91;99.20;100313.35;106321;1255;61149;-69
2023/07/27 02:05:23;;;;;;;7.10;5.20;;;;;;;11.92;99.21;100307.48;106285;1253;73249;-68
2023/07/27 02:07:50;;;;;;;8.00;5.50;;;;;;;11.94;99.32;100300.01;106214;1257;71248;-68
2023/07/27 02:10:19;;;;;;;8.80;5.30;;;;;;;11.97;99.30;100296.10;106536;1255;71467;-69
2023/07/27 02:12:57;;;;;;;9.40;5.90;;;;;;;11.99;99.40;100295.79;106324;1254;62049;-68
2023/07/27 02:15:32;;;;;;;7.00;5.00;;;;;;;12.02;99.53;100291.91;106274;1257;61285;-68
2023/07/27 02:18:07;;;;;;;8.10;4.80;;;;;;;12.05;99.35;100288.67;106547;1256;73445;-69
2023/07/27 02:20:35;;;;;;;8.80;5.10;;;;;;;12.09;99.28;100290.30;106352;1255;69969;-68
2023/07/27 02:23:05;;;;;;;7.40;4.90;;;;;;;12.13;99.22;100289.73;106379;1256;71565;-68
2023/07/27 02:25:32;;;;;;;7.90;5.20;;;;;;;12.18;99.40;100282.54;106374;1257;61394;-70
2023/07/27 02:27:58;;;;;;;6.90;5.00;;;;;;;12.24;99.21;100281.14;106597;1257;62288;-69
2023/07/27 02:30:25;;;;;;;6.80;4.80;;;;;;;12.29;98.80;100281.58;106323;1257;74682;-69
2023/07/27 02:32:52;;;;;;;7.20;5.00;;;;;;;12.33;98.63;100279.14;106354;1255;69636;-68
2023/07/27 02:35:20;;;;;;;7.80;4.60;;;;;;;12.37;98.36;100280.03;106259;1253;72689;-69
2023/07/27 02:37:47;;;;;;;7.80;4.50;;;;;;;12.41;98.00;100276.16;106550;1251;61259;-70
2023/07/27 02:40:13;;;;;;;6.60;4.30;;;;;;;12.45;98.04;100279.48;106409;1254;61246;-68
2023/07/27 02:42:40;;;;;;;7.20;4.40;;;;;;;12.49;97.69;100277.23;106353;1266;73501;-68
2023/07/27 02:45:08;;;;;;;6.60;4.30;;;;;;;12.52;97.55;100274.12;106210;1256;70032;-68
2023/07/27 02:47:34;;;;;;;6.60;4.40;;;;;;;12.55;97.19;100274.63;106332;1253;71534;-69
2023/07/27 02:50:01;;;;;;;6.60;4.20;;;;;;;12.59;96.81;100269.70;106530;1256;61886;-69
2023/07/27 02:52:28;;;;;;;6.90;4.60;;;;;;;12.62;96.54;100267.14;106420;1253;61178;-68
2023/07/27 02:54:55;;;;;;;6.90;4.10;;;;;;;12.64;96.18;100258.20;106203;1257;73444;-69
2023/07/27 02:57:21;;;;;;;8.20;4.50;;;;;;;12.67;95.99;100260.59;106244;1254;70121;-69
2023/07/27 02:59:48;;;;;;;6.70;4.40;;;;;;;12.67;95.67;100258.63;106446;1256;71421;-70
2023/07/27 03:02:15;;;;;;;7.00;4.90;;;;;;;12.68;95.40;100258.88;106219;1254;61237;-69
2023/07/27 03:04:42;;;;;;;5.90;5.00;;;;;;;12.67;95.20;100256.84;106291;1254;61251;-69
2023/07/27 03:07:09;;;;;;;7.90;5.00;;;;;;;12.68;95.00;100261.05;106229;1255;75136;-69
2023/07/27 03:09:36;;;;;;;6.60;4.70;;;;;;;12.67;95.02;100261.49;106277;1254;70365;-68
2023/07/27 03:12:03;;;;;;;6.10;5.00;;;;;;;12.65;94.86;100260.91;106662;1254;72656;-68
2023/07/27 03:14:30;;;;;;;6.70;5.10;;;;;;;12.63;94.57;100255.02;106418;1254;62021;-68
2023/07/27 03:16:57;;;;;;;6.40;5.20;;;;;;;12.61;94.53;100248.00;106250;1254;61298;-68
2023/07/27 03:19:23;;;;;;;7.90;5.00;;;;;;;12.58;94.36;100243.41;106384;1257;74471;-70
2023/07/27 03:21:50;;;;;;;8.50;5.20;;;;;;;12.54;94.31;100239.30;106339;1252;69972;-69
2023/07/27 03:24:17;;;;;;;6.70;5.00;;;;;;;12.49;94.08;100233.91;106429;1257;71873;-69
2023/07/27 03:26:44;;;;;;;6.50;5.10;;;;;;;12.45;94.21;100231.98;106383;1254;61145;-68
2023/07/27 03:29:11;;;;;;;6.90;5.30;;;;;;;12.40;94.35;100229.02;106239;1258;61717;-68
2023/07/27 03:31:38;;;;;;;7.20;4.90;;;;;;;12.36;94.20;100226.75;106323;1255;73538;-69
2023/07/27 03:34:05;;;;;;;7.00;4.90;;;;;;;12.31;94.26;100224.88;106614;1254;71130;-70
2023/07/27 03:36:32;;;;;;;6.20;4.90;;;;;;;12.28;94.35;100220.69;106296;1254;71610;-69
2023/07/27 03:38:59;;;;;;;7.50;5.00;;;;;;;12.25;94.49;100223.95;106286;1257;61875;-69
2023/07/27 03:41:26;;;;;;;6.00;4.40;;;;;;;12.21;94.40;100221.23;106237;1258;61334;-69
2023/07/27 03:43:53;;;;;;;6.40;4.50;;;;;;;12.17;94.74;100217.39;106497;1254;73690;-70
2023/07/27 03:46:20;;;;;;;7.40;5.00;;;;;;;12.15;94.67;100215.77;106352;1254;69953;-69
2023/07/27 03:48:49;;;;;;;7.00;4.60;;;;;;;12.14;94.79;100218.41;106275;1254;71800;-69
2023/07/27 03:51:16;;;;;;;6.70;4.60;;;;;;;12.13;94.85;100216.76;106346;1254;61686;-68
2023/07/27 03:53:43;;;;;;;6.20;4.30;;;;;;;12.12;94.89;100213.65;106371;1254;61247;-70
2023/07/27 03:56:10;;;;;;;7.00;4.90;;;;;;;12.12;95.17;100215.09;106509;1256;74620;-70
2023/07/27 03:58:38;;;;;;;7.50;4.70;;;;;;;12.13;95.12;100207.89;106356;1256;69965;-70
2023/07/27 04:01:06;;;;;;;7.80;4.80;;;;;;;12.15;95.15;100206.96;106322;1253;72241;-69
2023/07/27 04:03:33;;;;;;;6.60;4.90;;;;;;;12.16;95.16;100201.48;106442;1254;61313;-71
2023/07/27 04:06:00;;;;;;;6.70;4.70;;;;;;;12.18;95.14;100196.46;106460;1256;61202;-70
2023/07/27 04:08:27;;;;;;;7.20;4.50;;;;;;;12.21;95.16;100190.60;106391;1254;73523;-69
2023/07/27 04:10:54;;;;;;;7.70;4.40;;;;;;;12.25;95.48;100185.31;106281;1254;70844;-69
2023/07/27 04:13:20;;;;;;;6.80;4.40;;;;;;;12.29;95.16;100187.06;106265;1254;71443;-69
2023/07/27 04:15:47;;;;;;;6.70;4.40;;;;;;;12.34;95.41;100188.55;106296;1257;61974;-70
2023/07/27 04:18:14;;;;;;;6.10;4.50;;;;;;;12.40;95.36;100186.48;106512;1254;61208;-70
2023/07/27 04:20:41;;;;;;;6.90;4.10;;;;;;;12.48;95.36;100185.64;106195;1257;73123;-69
2023/07/27 04:23:07;;;;;;;7.20;4.20;;;;;;;12.56;95.27;100183.59;106344;1254;71265;-71
2023/07/27 04:25:34;;;;;;;7.90;4.30;;;;;;;12.64;95.24;100185.51;106254;1254;61251;-68
2023/07/27 04:28:01;;;;;;;7.20;4.40;;;;;;;12.73;95.15;100190.51;106436;1254;62222;-69
2023/07/27 04:30:28;;;;;;;7.60;4.10;;;;;;;12.83;95.17;100191.39;106301;1253;61366;-68
2023/07/27 04:32:55;;;;;;;6.20;4.20;;;;;;;12.92;95.15;100190.87;106288;1256;73147;-68
2023/07/27 04:35:21;;;;;;;6.30;4.10;;;;;;;13.01;95.19;100190.40;106261;1256;70029;-68
2023/07/27 04:37:48;;;;;;;4.90;4.00;;;;;;;13.11;95.11;100187.51;106340;1256;72727;-69
2023/07/27 04:40:15;;;;;;;5.10;3.80;;;;;;;13.23;95.03;100187.38;106381;1254;61329;-69
2023/07/27 04:42:42;;;;;;;5.00;3.80;;;;;;;13.33;94.73;100177.70;106326;1253;61244;-68
2023/07/27 04:45:09;;;;;;;6.30;3.80;;;;;;;13.45;94.58;100173.27;106178;1254;74743;-68
2023/07/27 04:47:36;;;;;;;5.80;3.90;;;;;;;13.56;94.32;100173.17;106264;1254;71202;-67
2023/07/27 04:50:04;;;;;;;5.10;3.40;;;;;;;13.68;94.21;100168.96;106399;1254;71445;-69
2023/07/27 04:52:31;;;;;;;5.60;3.80;;;;;;;13.78;93.64;100166.40;106433;1253;61246;-68
2023/07/27 04:54:58;;;;;;;5.70;3.90;;;;;;;13.89;93.41;100154.47;106243;1257;61184;-68
2023/07/27 04:57:24;;;;;;;6.10;3.80;;;;;;;14.00;93.06;100152.06;106322;1254;72337;-68
2023/07/27 04:59:51;;;;;;;6.10;3.30;;;;;;;14.12;92.75;100151.32;106282;1254;70659;-68
2023/07/27 05:02:18;;;;;;;5.80;3.00;;;;;;;14.22;92.28;100152.05;106614;1252;70465;-68
2023/07/27 05:04:45;;;;;;;4.50;3.10;;;;;;;14.32;91.97;100148.43;106275;1253;61279;-68
2023/07/27 05:07:11;;;;;;;5.10;3.20;;;;;;;14.42;91.57;100150.35;106336;1254;61276;-69
2023/07/27 05:09:38;;;;;;;4.00;2.70;;;;;;;14.53;91.35;100140.70;106358;1255;61279;-69
2023/07/27 05:12:05;;;;;;;4.30;2.90;;;;;;;14.64;90.95;100138.80;106464;1253;69932;-70
2023/07/27 05:14:33;;;;;;;5.60;2.90;;;;;;;14.76;90.61;100137.65;106337;1254;72630;-68
2023/07/27 05:17:00;;;;;;;5.10;3.10;;;;;;;14.88;90.39;100133.71;106254;1252;61754;-68
2023/07/27 05:19:26;;;;;;;5.70;3.10;;;;;;;14.97;90.15;100136.06;106242;1254;61797;-68
2023/07/27 05:21:53;;;;;;;4.70;3.20;;;;;;;15.04;89.42;100135.58;106320;1256;75111;-69
2023/07/27 05:24:20;;;;;;;5.00;2.80;;;;;;;15.09;89.14;100131.15;106466;1253;70104;-69
2023/07/27 05:26:47;;;;;;;3.90;2.60;;;;;;;15.15;88.78;100140.36;106306;1254;71443;-69
2023/07/27 05:29:13;;;;;;;6.00;2.60;;;;;;;15.19;88.57;100147.52;106259;1252;61232;-68
2023/07/27 05:31:40;;;;;;;5.10;2.60;;;;;;;15.21;88.19;100151.94;106376;1253;61223;-70
2023/07/27 05:34:08;;;;;;;4.90;2.60;;;;;;;15.23;87.90;100150.23;106496;1254;74510;-69
2023/07/27 05:36:36;;;;;;;5.10;2.60;;;;;;;15.25;87.78;100153.50;106325;1257;71207;-69
2023/07/27 05:39:03;;;;;;;4.00;2.50;;;;;;;15.27;87.35;100158.58;106319;1252;72735;-68
2023/07/27 05:41:30;;;;;;;4.20;2.40;;;;;;;15.30;87.04;100158.20;106276;1254;61999;-70
2023/07/27 05:43:57;;;;;;;4.10;2.40;;;;;;;15.32;86.66;100154.55;106210;1258;61263;-68
2023/07/27 05:46:24;;;;;;;5.50;2.30;;;;;;;15.36;86.42;100153.20;106431;1252;74668;-68
2023/07/27 05:48:51;;;;;;;3.40;2.30;;;;;;;15.40;85.91;100151.29;106331;1256;71565;-69
2023/07/27 05:51:18;;;;;;;3.20;2.20;;;;;;;15.43;85.50;100150.05;106243;1255;71841;-68
2023/07/27 05:53:45;;;;;;;4.90;2.30;;;;;;;15.46;85.05;100152.66;106327;1254;61255;-69
2023/07/27 05:56:12;;;;;;;4.60;2.40;;;;;;;15.48;84.81;100147.71;106427;1254;61251;-69
2023/07/27 05:58:41;;;;;;;4.60;2.30;;;;;;;15.54;84.67;100145.35;106397;1255;74850;-68
2023/07/27 06:01:08;;;;;;;3.80;2.30;;;;;;;15.60;84.64;100146.02;106278;1252;71165;-68
2023/07/27 06:03:35;;;;;;;4.30;2.30;;;;;;;15.69;84.59;100142.84;106211;1256;71131;-67
2023/07/27 06:06:01;;;;;;;5.60;2.30;;;;;;;15.75;84.11;100148.85;106386;1253;61770;-68
2023/07/27 06:08:29;;;;;;;4.30;2.30;;;;;;;15.79;83.47;100153.17;106685;1253;61271;-68
2023/07/27 06:11:04;;;;;;;4.20;1.90;;;;;;;15.79;83.41;100155.48;106244;1254;73470;-67
2023/07/27 06:13:32;;;;;;;4.40;2.10;;;;;;;15.78;83.63;100156.69;106311;1253;70161;-69
2023/07/27 06:15:59;;;;;;;4.00;2.20;;;;;;;15.77;83.94;100152.66;106408;1252;72580;-69
2023/07/27 06:18:26;;;;;;;5.20;2.30;;;;;;;15.78;84.18;100150.71;106367;1258;61758;-67
2023/07/27 06:20:54;;;;;;;3.70;2.10;;;;;;;15.82;84.38;100151.79;106327;1253;61684;-68
2023/07/27 06:23:21;;;;;;;3.80;2.00;;;;;;;15.84;83.71;100149.13;106438;1255;74587;-70
2023/07/27 06:25:49;;;;;;;4.00;2.30;;;;;;;15.86;83.67;100142.15;106297;1252;71168;-67
2023/07/27 06:28:16;;;;;;;4.60;2.10;;;;;;;15.88;83.65;100144.31;106652;1252;71748;-69
2023/07/27 06:30:43;;;;;;;3.60;2.00;;;;;;;15.90;83.53;100140.29;106317;1253;61323;-69
2023/07/27 06:33:10;;;;;;;4.90;2.30;;;;;;;15.93;83.39;100138.87;106295;1254;61368;-69
2023/07/27 06:35:37;;;;;;;3.70;2.20;;;;;;;15.96;83.47;100131.84;106239;1254;73485;-69
2023/07/27 06:38:03;;;;;;;3.40;2.00;;;;;;;16.01;83.28;100127.08;106330;1253;71271;-69
2023/07/27 06:40:30;;;;;;;3.70;2.20;;;;;;;16.07;83.09;100131.40;106407;1253;71265;-69
2023/07/27 06:42:57;;;;;;;5.00;2.60;;;;;;;16.12;82.72;100127.45;106250;1253;61215;-69
2023/07/27 06:45:24;;;;;;;4.70;2.20;;;;;;;16.16;82.24;100126.48;106310;1253;61372;-68
2023/07/27 06:47:50;;;;;;;4.80;2.00;;;;;;;16.22;82.23;100127.76;106263;1255;72979;-68
2023/07/27 06:50:18;;;;;;;2.80;1.90;;;;;;;16.27;82.00;100125.23;106579;1253;71331;-69
2023/07/27 06:52:45;;;;;;;4.40;2.10;;;;;;;16.35;81.88;100121.25;106273;1252;72779;-68
2023/07/27 06:55:11;;;;;;;3.80;2.30;;;;;;;16.42;81.33;100125.73;106389;1255;61404;-67
2023/07/27 06:57:38;;;;;;;4.70;2.00;;;;;;;16.52;81.34;100130.28;106305;1254;62474;-69
2023/07/27 07:00:07;;;;;;;3.90;2.00;;;;;;;16.65;81.01;100129.05;106267;1254;73108;-69
2023/07/27 07:02:34;;;;;;;4.20;2.00;;;;;;;16.75;80.47;100131.39;106422;1253;71180;-69
2023/07/27 07:05:02;;;;;;;2.90;1.90;;;;;;;16.84;80.62;100128.05;106322;1253;71447;-70
2023/07/27 07:07:29;;;;;;;3.40;2.10;;;;;;;16.89;79.99;100128.02;106366;1257;61326;-69
2023/07/27 07:09:56;;;;;;;3.90;2.00;;;;;;;16.91;79.85;100125.23;106276;1255;61263;-69
2023/07/27 07:12:23;;;;;;;3.40;2.10;;;;;;;16.89;79.73;100125.14;106479;1254;73710;-68
2023/07/27 07:14:50;;;;;;;4.50;1.90;;;;;;;16.89;79.90;100124.15;106243;1253;70123;-70
2023/07/27 07:17:18;;;;;;;4.50;2.30;;;;;;;16.90;79.92;100125.53;106576;1255;72744;-69
2023/07/27 07:19:45;;;;;;;4.60;2.10;;;;;;;16.89;79.96;100124.06;106147;1256;61335;-69
2023/07/27 07:22:12;;;;;;;4.90;2.20;;;;;;;16.84;80.01;100125.84;106488;1253;61801;-68
2023/07/27 07:24:39;;;;;;;3.30;2.10;;;;;;;16.82;80.56;100126.15;106406;1252;74001;-69
2023/07/27 07:27:06;;;;;;;3.30;1.90;;;;;;;16.81;81.02;100122.09;106254;1255;69955;-68
2023/07/27 07:29:34;;;;;;;4.30;2.00;;;;;;;16.81;81.19;100119.77;106194;1256;72826;-67
2023/07/27 07:32:01;;;;;;;3.70;2.30;;;;;;;16.76;81.26;100119.75;106266;1253;62099;-68
2023/07/27 07:34:28;;;;;;;3.50;2.30;;;;;;;16.73;81.69;100119.75;106622;1253;61687;-68
2023/07/27 07:36:54;;;;;;;5.10;2.00;;;;;;;16.70;81.95;100118.40;106262;1252;73649;-69
2023/07/27 07:39:21;;;;;;;4.10;2.20;;;;;;;16.69;82.31;100111.95;106291;1253;70025;-69
2023/07/27 07:41:48;;;;;;;3.80;2.30;;;;;;;16.65;82.53;100111.26;106214;1252;72049;-68
2023/07/27 07:44:15;;;;;;;4.80;2.40;;;;;;;16.64;83.00;100104.65;106455;1257;61464;-69
2023/07/27 07:46:42;;;;;;;4.50;2.60;;;;;;;16.64;83.15;100102.87;106310;1253;61184;-69
2023/07/27 07:49:09;;;;;;;3.90;2.10;;;;;;;16.62;83.35;100102.05;106299;1255;72496;-68
2023/07/27 07:51:36;;;;;;;4.20;2.30;;;;;;;16.59;83.70;100100.19;106315;1253;69347;-68
2023/07/27 07:54:05;;;;;;;4.00;2.10;;;;;;;16.55;83.97;100092.49;105987;1252;470811;-69
2023/07/27 07:56:32;;;;;;;4.90;2.20;;;;;;;16.55;84.27;100089.54;106509;1251;61705;-69
2023/07/27 07:58:59;;;;;;;5.60;2.70;;;;;;;16.54;84.80;100094.05;106323;1253;61204;-70
2023/07/27 08:01:26;;;;;;;4.40;2.30;;;;;;;16.52;84.97;100091.98;106259;1253;75433;-68
2023/07/27 08:03:53;;;;;;;4.80;2.70;;;;;;;16.49;85.17;100085.58;106188;1252;69912;-67
2023/07/27 08:06:20;;;;;;;3.60;2.20;;;;;;;16.50;85.53;100083.06;106542;1253;72746;-69
2023/07/27 08:08:46;;;;;;;4.70;2.30;;;;;;;16.52;85.59;100080.10;106248;1256;61615;-68
2023/07/27 08:11:13;;;;;;;4.30;2.20;;;;;;;16.55;85.52;100076.41;106378;1253;61268;-68
2023/07/27 08:13:40;;;;;;;4.60;2.30;;;;;;;16.60;85.63;100073.28;106225;1255;73509;-69
2023/07/27 08:16:07;;;;;;;3.60;2.20;;;;;;;16.66;85.51;100066.68;106368;1253;71398;-69
2023/07/27 08:18:34;;;;;;;5.40;2.30;;;;;;;16.71;85.57;100057.53;106443;1252;72534;-69
2023/07/27 08:21:03;;;;;;;5.00;2.80;;;;;;;16.78;85.67;100053.99;106270;1252;61645;-69
2023/07/27 08:23:30;;;;;;;3.80;2.50;;;;;;;16.85;85.22;100051.46;106323;1254;61689;-68
2023/07/27 08:25:58;;;;;;;3.90;2.40;;;;;;;16.92;84.95;100049.75;106278;1255;73450;-69
2023/07/27 08:28:26;;;;;;;4.40;2.50;;;;;;;17.03;85.13;100038.48;106620;1253;71218;-69
2023/07/27 08:30:53;;;;;;;3.90;2.50;;;;;;;17.14;84.86;100037.23;106415;1255;71759;-70
2023/07/27 08:33:21;;;;;;;5.10;2.50;;;;;;;17.34;85.10;100034.81;106544;1253;62693;-69
2023/07/27 08:35:48;;;;;;;4.60;2.40;;;;;;;17.54;84.95;100029.49;106398;1252;61276;-69
2023/07/27 08:38:15;;;;;;;4.00;2.30;;;;;;;17.72;84.09;100026.03;106664;1253;73452;-69
2023/07/27 08:40:59;;;;;;;5.30;2.20;;;;;;;17.89;83.43;100018.79;106463;1253;69967;-69
2023/07/27 08:43:26;;;;;;;4.40;2.60;;;;;;;18.05;82.34;100012.72;106325;1253;71446;-68
2023/07/27 08:45:54;;;;;;;5.30;2.50;;;;;;;18.20;82.26;100001.09;106327;1255;61279;-69
2023/07/27 08:48:24;;;;;;;3.70;2.00;;;;;;;18.29;81.36;99996.56;106558;1253;61360;-68
2023/07/27 08:50:53;;;;;;;5.30;2.30;;;;;;;18.34;81.04;99992.98;106239;1252;73426;-68
2023/07/27 08:53:20;;;;;;;3.50;2.40;;;;;;;18.41;80.62;99993.14;106367;1253;68993;-68
2023/07/27 08:55:47;;;;;;;4.60;2.20;;;;;;;18.44;80.14;99995.84;106312;1252;72737;-70
2023/07/27 08:58:14;;;;;;;4.60;2.30;;;;;;;18.49;80.12;99993.99;106553;1256;62110;-68
2023/07/27 09:00:42;;;;;;;4.30;2.10;;;;;;;18.58;80.64;99983.93;106359;1253;61208;-69
2023/07/27 09:03:08;;;;;;;3.90;2.30;;;;;;;18.69;80.63;99978.17;106300;1255;73253;-71
2023/07/27 09:05:56;;;;;;;3.50;2.00;;;;;;;18.75;79.50;99971.75;106288;1252;70837;-69
2023/07/27 09:08:26;;;;;;;4.70;2.40;;;;;;;18.83;80.11;99970.09;106262;1252;71617;-67
2023/07/27 09:10:53;;;;;;;5.30;2.30;;;;;;;18.88;79.02;99967.30;106308;1254;62450;-68
2023/07/27 09:13:19;;;;;;;3.70;2.30;;;;;;;18.90;78.83;99969.75;106235;1256;61260;-68
2023/07/27 09:15:46;;;;;;;4.40;2.30;;;;;;;18.99;79.25;99969.00;106604;1253;73524;-69
2023/07/27 09:18:14;;;;;;;4.60;2.40;;;;;;;19.11;78.95;99963.09;106242;1252;71165;-69
2023/07/27 09:20:42;;;;;;;4.60;2.20;;;;;;;19.17;77.97;99963.58;106439;1252;73056;-68
2023/07/27 09:23:17;;;;;;;4.60;2.50;;;;;;;19.22;77.58;99962.20;106434;1255;61245;-68
2023/07/27 09:25:54;;;;;;;3.80;2.10;;;;;;;19.25;77.34;99963.91;106558;1253;61452;-69
2023/07/27 09:28:25;;;;;;;4.00;2.30;;;;;;;19.29;77.30;99961.02;106414;1252;74472;-68
2023/07/27 09:30:59;;;;;;;3.80;2.10;;;;;;;19.35;77.46;99960.16;106395;1253;71868;-69
2023/07/27 09:33:26;;;;;;;5.40;2.20;;;;;;;19.38;76.61;99957.56;106621;1252;72821;-71
2023/07/27 09:35:54;;;;;;;4.20;2.10;;;;;;;19.34;75.41;99959.34;106178;1252;61820;-70
2023/07/27 09:38:27;;;;;;;4.30;2.10;;;;;;;19.23;74.85;99954.68;106286;1252;61133;-69
2023/07/27 09:40:54;;;;;;;4.30;2.30;;;;;;;19.19;75.44;99952.60;106273;1255;74713;-68
2023/07/27 09:43:23;;;;;;;5.20;2.40;;;;;;;19.12;75.10;99952.50;106459;1253;70424;-69
2023/07/27 09:45:58;;;;;;;3.70;2.20;;;;;;;19.01;75.17;99953.28;106348;1253;71140;-68
2023/07/27 09:48:26;;;;;;;4.40;2.30;;;;;;;18.85;76.09;99955.20;106332;1252;61238;-68
2023/07/27 09:51:01;;;;;;;3.90;2.30;;;;;;;18.63;77.49;99952.30;106348;1252;61295;-72
2023/07/27 09:53:32;;;;;;;4.00;2.30;;;;;;;18.45;79.08;99950.63;106437;1252;73842;-69
2023/07/27 09:55:59;;;;;;;4.30;2.50;;;;;;;18.31;80.08;99948.21;106395;1252;70522;-70
2023/07/27 09:58:28;;;;;;;3.70;2.50;;;;;;;18.24;81.36;99948.80;106283;1253;73945;-69
2023/07/27 10:00:55;;;;;;;6.10;2.60;;;;;;;18.17;82.03;99944.45;106509;1253;61739;-70
2023/07/27 10:03:22;;;;;;;5.50;2.70;;;;;;;18.06;83.07;99942.27;106344;1252;61343;-71
2023/07/27 10:05:49;;;;;;;4.20;2.80;;;;;;;17.91;83.57;99932.37;106252;1253;74763;-70
2023/07/27 10:08:16;;;;;;;3.50;2.70;;;;;;;17.79;85.00;99922.32;106260;1253;69667;-71
2023/07/27 10:10:44;;;;;;;4.50;3.00;;;;;;;17.73;85.74;99915.54;106205;1252;71753;-70
2023/07/27 10:13:30;;;;;;;5.50;3.00;;;;;;;17.69;86.30;99911.71;106514;1252;61366;-71
2023/07/27 10:16:00;;;;;;;5.80;2.70;;;;;;;17.65;86.85;99909.45;106174;1254;61285;-70
2023/07/27 10:18:27;;;;;;;5.30;2.70;;;;;;;17.66;87.38;99909.14;106278;1252;76179;-71
2023/07/27 10:21:13;;;;;;;3.90;2.60;;;;;;;17.65;87.63;99904.84;106519;1252;71176;-71
2023/07/27 10:23:52;;;;;;;5.90;2.90;;;;;;;17.63;87.74;99905.13;106234;1253;72758;-70
2023/07/27 10:26:19;;;;;;;4.60;2.60;;;;;;;17.63;88.05;99900.24;106572;1253;61739;-71
2023/07/27 10:28:49;;;;;;;4.60;2.70;;;;;;;17.64;87.97;99898.64;106359;1253;61359;-72
2023/07/27 10:31:25;;;;;;;4.20;2.70;;;;;;;17.62;88.05;99893.19;106472;1253;74436;-71
2023/07/27 10:34:07;;;;;;;4.10;2.70;;;;;;;17.63;88.42;99891.02;106404;1253;69934;-72
2023/07/27 10:36:57;;;;;;;3.80;2.80;;;;;;;17.68;88.82;99891.59;106323;1255;72703;-69
2023/07/27 10:39:35;;;;;;;5.90;2.50;;;;;;;17.71;88.73;99888.31;106268;1252;61508;-71
2023/07/27 10:42:19;;;;;;;3.70;2.40;;;;;;;17.71;88.69;99884.55;106359;1253;61160;-69
2023/07/27 10:44:55;;;;;;;4.90;2.70;;;;;;;17.68;88.61;99876.45;106270;1255;74671;-70
2023/07/27 10:47:26;;;;;;;4.20;2.60;;;;;;;17.64;88.86;99871.61;106636;1252;71207;-70
2023/07/27 10:49:55;;;;;;;4.20;2.80;;;;;;;17.65;89.36;99869.32;106312;1253;71430;-70
2023/07/27 10:52:31;;;;;;;3.80;2.50;;;;;;;17.64;89.21;99866.78;106275;1252;61430;-70
2023/07/27 10:54:59;;;;;;;5.10;2.90;;;;;;;17.63;89.36;99860.23;106488;1252;61479;-71
2023/07/27 10:57:28;;;;;;;5.00;2.80;;;;;;;17.63;89.68;99856.84;106376;1252;73081;-70
2023/07/27 10:59:55;;;;;;;5.10;2.50;;;;;;;17.67;90.13;99852.99;106343;1255;70553;-71
2023/07/27 11:02:24;;;;;;;4.30;2.60;;;;;;;17.70;89.97;99852.35;105995;1254;71545;-70
2023/07/27 11:04:53;;;;;;;3.30;2.40;;;;;;;17.75;90.39;99844.05;106379;1252;61232;-71
2023/07/27 11:07:40;;;;;;;6.20;2.80;;;;;;;17.84;90.58;99841.34;106457;1253;61445;-71
2023/07/27 11:10:16;;;;;;;4.60;2.30;;;;;;;18.01;90.68;99842.36;106326;1253;73735;-70
2023/07/27 11:12:51;;;;;;;3.50;2.00;;;;;;;18.05;89.48;99842.73;106497;1253;69702;-69
2023/07/27 11:15:24;;;;;;;5.10;2.50;;;;;;;18.03;88.90;99837.02;106328;1253;71907;-70
2023/07/27 11:17:55;;;;;;;3.40;2.10;;;;;;;18.00;89.12;99831.88;106209;1255;61341;-71
2023/07/27 11:20:24;;;;;;;3.30;2.00;;;;;;;17.94;88.77;99831.14;106577;1253;61324;-71
2023/07/27 11:22:53;;;;;;;3.00;1.90;;;;;;;17.86;88.92;99827.05;106271;1253;73581;-71
2023/07/27 11:25:19;;;;;;;2.70;1.70;;;;;;;17.78;89.22;99825.87;106237;1252;70360;-70
2023/07/27 11:27:51;;;;;;;3.30;2.00;;;;;;;17.76;89.83;99823.95;106219;1253;72320;-70